createdAt,value
2023-07-19T00:00:23.436Z,52.84
2023-07-19T00:02:51.045Z,52.49
2023-07-19T00:05:18.587Z,53.11
2023-07-19T00:07:46.534Z,52.06
2023-07-19T00:10:15.413Z,52.71
2023-07-19T00:12:55.491Z,52.64
2023-07-19T00:15:24.643Z,52.64
2023-07-19T00:17:52.268Z,52.79
2023-07-19T00:20:21.004Z,53.36
2023-07-19T00:22:48.619Z,53.51
2023-07-19T00:25:17.956Z,53.47
2023-07-19T00:27:46.330Z,52.67
2023-07-19T00:30:15.295Z,53.07
2023-07-19T00:32:43.850Z,53.79
2023-07-19T00:35:11.749Z,53.43
2023-07-19T00:37:39.237Z,53.81
2023-07-19T00:40:07.911Z,53.72
2023-07-19T00:42:36.840Z,54.97
2023-07-19T00:45:05.234Z,53.99
2023-07-19T00:47:34.013Z,53.89
2023-07-19T00:50:01.730Z,54.57
2023-07-19T00:52:29.883Z,54.06
2023-07-19T00:54:57.567Z,53.80
2023-07-19T00:57:25.359Z,54.32
2023-07-19T00:59:54.344Z,54.01
2023-07-19T01:02:22.476Z,54.47
2023-07-19T01:04:50.757Z,54.10
2023-07-19T01:07:18.878Z,53.76
2023-07-19T01:09:46.525Z,54.44
2023-07-19T01:12:14.065Z,54.25
2023-07-19T01:14:41.616Z,54.67
2023-07-19T01:17:10.460Z,55.26
2023-07-19T01:19:38.057Z,54.04
2023-07-19T01:22:07.517Z,55.16
2023-07-19T01:24:36.404Z,54.83
2023-07-19T01:27:17.005Z,54.27
2023-07-19T01:29:49.573Z,55.04
2023-07-19T01:32:17.309Z,54.89
2023-07-19T01:34:44.930Z,55.04
2023-07-19T01:37:12.547Z,55.40
2023-07-19T01:39:41.391Z,55.31
2023-07-19T01:42:09.054Z,54.86
2023-07-19T01:44:36.595Z,55.21
2023-07-19T01:47:04.091Z,54.46
2023-07-19T01:49:31.673Z,54.98
2023-07-19T01:51:59.171Z,55.72
2023-07-19T01:54:26.675Z,55.51
2023-07-19T01:56:55.544Z,55.27
2023-07-19T01:59:23.073Z,55.70
2023-07-19T02:01:50.663Z,56.21
2023-07-19T02:04:18.300Z,55.39
2023-07-19T02:06:45.814Z,56.17
2023-07-19T02:09:13.360Z,55.42
2023-07-19T02:11:41.425Z,57.15
2023-07-19T02:14:10.306Z,56.85
2023-07-19T02:16:37.896Z,56.20
2023-07-19T02:19:05.809Z,55.94
2023-07-19T02:21:33.198Z,55.96
2023-07-19T02:24:00.954Z,56.13
2023-07-19T02:26:28.445Z,56.64
2023-07-19T02:28:55.955Z,56.73
2023-07-19T02:31:25.024Z,57.58
2023-07-19T02:33:52.847Z,58.05
2023-07-19T02:36:20.357Z,56.94
2023-07-19T02:38:47.840Z,57.71
2023-07-19T02:41:15.840Z,57.12
2023-07-19T02:43:43.225Z,57.50
2023-07-19T02:46:10.825Z,57.79
2023-07-19T02:48:39.686Z,58.23
2023-07-19T02:51:07.223Z,57.35
2023-07-19T02:53:34.778Z,57.61
2023-07-19T02:56:02.291Z,57.21
2023-07-19T02:58:30.030Z,56.94
2023-07-19T03:00:57.677Z,57.00
2023-07-19T03:03:25.389Z,57.24
2023-07-19T03:05:54.289Z,57.76
2023-07-19T03:08:21.907Z,57.93
2023-07-19T03:10:54.015Z,57.25
2023-07-19T03:13:21.620Z,57.31
2023-07-19T03:15:49.237Z,57.99
2023-07-19T03:18:17.015Z,57.69
2023-07-19T03:20:44.609Z,58.04
2023-07-19T03:23:13.587Z,57.79
2023-07-19T03:25:41.208Z,58.04
2023-07-19T03:28:08.705Z,58.24
2023-07-19T03:30:36.448Z,58.58
2023-07-19T03:33:04.007Z,59.31
2023-07-19T03:35:32.185Z,61.40
2023-07-19T03:37:59.668Z,60.68
2023-07-19T03:40:30.781Z,58.82
2023-07-19T03:42:58.285Z,58.03
2023-07-19T03:45:28.480Z,58.22
2023-07-19T03:47:56.090Z,58.32
2023-07-19T03:50:23.713Z,58.74
2023-07-19T03:52:51.233Z,58.72
2023-07-19T03:55:19.052Z,58.84
2023-07-19T03:57:48.243Z,58.49
2023-07-19T04:00:16.527Z,58.79
2023-07-19T04:02:44.213Z,58.53
2023-07-19T04:05:11.873Z,58.74
2023-07-19T04:07:39.664Z,60.12
2023-07-19T04:10:08.177Z,58.67
2023-07-19T04:12:35.962Z,58.52
2023-07-19T04:15:05.671Z,59.58
2023-07-19T04:17:33.821Z,59.33
2023-07-19T04:20:06.060Z,59.02
2023-07-19T04:22:33.833Z,59.07
2023-07-19T04:25:01.622Z,58.88
2023-07-19T04:27:29.375Z,60.08
2023-07-19T04:29:56.942Z,59.81
2023-07-19T04:32:25.968Z,61.17
2023-07-19T04:34:54.649Z,59.60
2023-07-19T04:37:22.726Z,63.92
2023-07-19T04:39:51.075Z,59.63
2023-07-19T04:42:18.773Z,60.20
2023-07-19T04:44:46.486Z,59.13
2023-07-19T04:47:14.131Z,59.16
2023-07-19T04:49:43.376Z,58.87
2023-07-19T04:52:10.939Z,58.90
2023-07-19T04:54:38.532Z,59.35
2023-07-19T04:57:06.895Z,59.46
2023-07-19T04:59:34.426Z,59.05
2023-07-19T05:02:02.222Z,63.21
2023-07-19T05:04:29.735Z,61.02
2023-07-19T05:06:58.585Z,65.38
2023-07-19T05:09:26.070Z,61.19
2023-07-19T05:11:53.714Z,64.75
2023-07-19T05:14:21.219Z,61.00
2023-07-19T05:16:48.766Z,62.23
2023-07-19T05:19:16.425Z,60.85
2023-07-19T05:21:44.159Z,59.62
2023-07-19T05:24:13.245Z,62.26
2023-07-19T05:26:41.160Z,61.82
2023-07-19T05:29:09.101Z,59.80
2023-07-19T05:31:36.719Z,57.54
2023-07-19T05:34:05.578Z,61.26
2023-07-19T05:36:33.072Z,62.15
2023-07-19T05:39:01.116Z,61.35
2023-07-19T05:41:29.995Z,64.53
2023-07-19T05:44:10.263Z,59.87
2023-07-19T05:46:39.758Z,63.13
2023-07-19T05:49:07.319Z,63.27
2023-07-19T05:51:34.937Z,64.91
2023-07-19T05:54:04.630Z,62.75
2023-07-19T05:56:33.591Z,61.60
2023-07-19T05:59:01.584Z,63.19
2023-07-19T06:01:32.465Z,61.02
2023-07-19T06:04:01.898Z,59.95
2023-07-19T06:06:29.706Z,60.81
2023-07-19T06:08:57.243Z,61.30
2023-07-19T06:11:24.914Z,60.73
2023-07-19T06:13:55.921Z,58.92
2023-07-19T06:16:23.507Z,58.97
2023-07-19T06:18:54.076Z,58.20
2023-07-19T06:21:21.892Z,59.44
2023-07-19T06:23:49.798Z,59.42
2023-07-19T06:26:17.441Z,58.69
2023-07-19T06:28:45.962Z,59.71
2023-07-19T06:31:15.012Z,61.43
2023-07-19T06:33:42.540Z,61.02
2023-07-19T06:36:10.091Z,60.65
2023-07-19T06:38:38.145Z,60.55
2023-07-19T06:41:06.453Z,62.15
2023-07-19T06:43:34.002Z,63.18
2023-07-19T06:46:01.766Z,63.93
2023-07-19T06:48:30.742Z,62.76
2023-07-19T06:50:58.573Z,63.90
2023-07-19T06:53:26.126Z,63.52
2023-07-19T06:55:55.958Z,63.45
2023-07-19T06:58:23.759Z,62.86
2023-07-19T07:00:51.295Z,63.17
2023-07-19T07:03:18.870Z,62.65
2023-07-19T07:05:47.815Z,61.07
2023-07-19T07:08:16.242Z,62.04
2023-07-19T07:10:44.766Z,61.94
2023-07-19T07:13:12.703Z,61.32
2023-07-19T07:15:40.078Z,61.37
2023-07-19T07:18:07.734Z,60.74
2023-07-19T07:20:36.805Z,61.29
2023-07-19T07:23:05.891Z,59.62
2023-07-19T07:25:38.249Z,59.78
2023-07-19T07:28:06.634Z,58.99
2023-07-19T07:30:36.751Z,58.29
2023-07-19T07:33:04.541Z,58.13
2023-07-19T07:35:32.266Z,58.27
2023-07-19T07:38:00.173Z,58.36
2023-07-19T07:40:28.957Z,56.76
2023-07-19T07:42:56.569Z,56.07
2023-07-19T07:45:24.180Z,54.29
2023-07-19T07:47:51.723Z,53.31
2023-07-19T07:50:20.757Z,53.44
2023-07-19T07:52:55.530Z,52.67
2023-07-19T07:55:26.376Z,51.71
2023-07-19T07:57:55.229Z,51.94
2023-07-19T08:00:22.990Z,52.10
2023-07-19T08:02:50.950Z,51.77
2023-07-19T08:05:18.610Z,50.21
2023-07-19T08:07:46.290Z,50.11
2023-07-19T08:10:14.081Z,50.33
2023-07-19T08:12:41.515Z,51.00
2023-07-19T08:15:11.166Z,49.87
2023-07-19T08:17:38.928Z,49.21
2023-07-19T08:20:10.692Z,48.74
2023-07-19T08:22:40.641Z,49.64
2023-07-19T08:25:24.686Z,47.94
2023-07-19T08:27:54.855Z,48.05
2023-07-19T08:30:24.527Z,48.64
2023-07-19T08:32:52.857Z,47.65
2023-07-19T08:35:20.897Z,47.77
2023-07-19T08:37:48.803Z,46.59
2023-07-19T08:40:18.030Z,46.56
2023-07-19T08:42:45.900Z,45.25
2023-07-19T08:45:15.368Z,46.83
2023-07-19T08:47:48.206Z,47.01
2023-07-19T08:50:16.338Z,47.39
2023-07-19T08:52:43.872Z,46.79
2023-07-19T08:55:11.416Z,47.04
2023-07-19T08:57:45.397Z,47.20
2023-07-19T09:00:17.213Z,47.62
2023-07-19T09:02:46.354Z,47.22
2023-07-19T09:05:15.459Z,46.96
2023-07-19T09:07:43.206Z,46.85
2023-07-19T09:10:11.831Z,45.56
2023-07-19T09:12:40.335Z,46.36
2023-07-19T09:15:09.614Z,47.34
2023-07-19T09:17:39.013Z,43.88
2023-07-19T09:20:12.523Z,45.77
2023-07-19T09:22:40.900Z,44.19
2023-07-19T09:25:10.694Z,44.40
2023-07-19T09:27:39.295Z,46.45
2023-07-19T09:30:10.992Z,45.16
2023-07-19T09:32:39.866Z,44.35
2023-07-19T09:35:11.818Z,45.23
2023-07-19T09:37:40.043Z,45.13
2023-07-19T09:40:08.445Z,44.28
2023-07-19T09:42:40.321Z,44.70
2023-07-19T09:45:09.175Z,43.73
2023-07-19T09:47:36.847Z,43.67
2023-07-19T09:50:07.437Z,42.82
2023-07-19T09:52:39.305Z,43.79
2023-07-19T09:55:10.307Z,43.62
2023-07-19T09:57:40.877Z,41.88
2023-07-19T10:00:12.834Z,41.22
2023-07-19T10:02:40.547Z,41.61
2023-07-19T10:05:09.056Z,40.53
2023-07-19T10:07:50.665Z,40.56
2023-07-19T10:10:22.074Z,41.93
2023-07-19T10:12:51.151Z,41.29
2023-07-19T10:15:22.035Z,42.36
2023-07-19T10:17:59.560Z,41.16
2023-07-19T10:20:29.712Z,41.38
2023-07-19T10:23:00.381Z,41.12
2023-07-19T10:25:29.639Z,39.88
2023-07-19T10:27:59.625Z,39.66
2023-07-19T10:30:55.398Z,39.54
2023-07-19T10:33:25.026Z,38.72
2023-07-19T10:35:56.370Z,39.14
2023-07-19T10:38:26.421Z,38.64
2023-07-19T10:40:56.934Z,40.01
2023-07-19T10:43:44.823Z,39.85
2023-07-19T10:46:13.988Z,40.27
2023-07-19T10:48:42.772Z,40.83
2023-07-19T10:51:11.343Z,39.58
2023-07-19T10:53:45.691Z,38.42
2023-07-19T10:56:15.022Z,38.80
2023-07-19T10:58:42.569Z,37.93
2023-07-19T11:01:10.308Z,37.82
2023-07-19T11:03:38.173Z,37.84
2023-07-19T11:06:09.416Z,36.82
2023-07-19T11:08:39.155Z,36.71
2023-07-19T11:11:09.153Z,37.01
2023-07-19T11:13:37.247Z,37.02
2023-07-19T11:16:06.423Z,38.68
2023-07-19T11:18:38.220Z,38.18
2023-07-19T11:21:06.080Z,38.79
2023-07-19T11:23:39.301Z,38.04
2023-07-19T11:26:10.196Z,37.46
2023-07-19T11:28:39.020Z,37.27
2023-07-19T11:31:07.071Z,37.28
2023-07-19T11:33:37.386Z,38.01
2023-07-19T11:36:07.974Z,37.46
2023-07-19T11:38:37.602Z,36.86
2023-07-19T11:41:05.550Z,33.49
2023-07-19T11:43:34.596Z,33.84
2023-07-19T11:46:02.100Z,33.48
2023-07-19T11:48:29.659Z,33.52
2023-07-19T11:50:57.175Z,34.22
2023-07-19T11:53:28.346Z,34.48
2023-07-19T11:56:02.373Z,32.89
2023-07-19T11:58:43.451Z,33.37
2023-07-19T12:01:13.768Z,34.56
2023-07-19T12:03:42.172Z,33.60
2023-07-19T12:06:10.083Z,34.85
2023-07-19T12:08:39.960Z,33.49
2023-07-19T12:11:10.373Z,33.62
2023-07-19T12:13:43.887Z,32.58
2023-07-19T12:16:12.718Z,34.33
2023-07-19T12:18:40.226Z,32.02
2023-07-19T12:21:08.220Z,31.78
2023-07-19T12:23:40.637Z,31.10
2023-07-19T12:26:11.162Z,34.07
2023-07-19T12:28:38.981Z,32.97
2023-07-19T12:31:08.085Z,33.22
2023-07-19T12:33:39.068Z,32.67
2023-07-19T12:36:07.359Z,32.75
2023-07-19T12:38:40.002Z,31.05
2023-07-19T12:41:07.886Z,31.58
2023-07-19T12:43:35.946Z,31.63
2023-07-19T12:46:03.657Z,33.33
2023-07-19T12:48:31.243Z,31.63
2023-07-19T12:51:00.461Z,32.78
2023-07-19T12:53:30.202Z,30.95
2023-07-19T12:55:57.683Z,31.52
2023-07-19T12:58:25.903Z,30.93
2023-07-19T13:00:53.821Z,30.87
2023-07-19T13:03:21.702Z,30.90
2023-07-19T13:05:49.912Z,31.64
2023-07-19T13:08:18.809Z,31.81
2023-07-19T13:10:46.532Z,30.33
2023-07-19T13:13:14.047Z,30.75
2023-07-19T13:15:41.555Z,31.91
2023-07-19T13:18:09.305Z,31.75
2023-07-19T13:20:36.938Z,31.76
2023-07-19T13:23:04.474Z,31.82
2023-07-19T13:25:33.210Z,31.60
2023-07-19T13:28:00.835Z,30.90
2023-07-19T13:30:28.386Z,31.04
2023-07-19T13:32:56.091Z,31.62
2023-07-19T13:40:24.810Z,31.50
2023-07-19T13:42:55.401Z,30.61
2023-07-19T13:45:24.674Z,31.83
2023-07-19T13:47:54.420Z,32.79
2023-07-19T13:50:22.025Z,32.92
2023-07-19T13:52:49.549Z,32.04
2023-07-19T13:55:17.085Z,33.23
2023-07-19T13:57:44.716Z,32.66
2023-07-19T14:00:14.343Z,32.72
2023-07-19T14:02:41.993Z,33.29
2023-07-19T14:05:11.026Z,32.83
2023-07-19T14:07:39.061Z,33.89
2023-07-19T14:10:09.176Z,33.90
2023-07-19T14:12:38.300Z,34.04
2023-07-19T14:15:07.993Z,34.49
2023-07-19T14:17:37.517Z,35.36
2023-07-19T14:20:06.504Z,35.11
2023-07-19T14:22:34.086Z,34.49
2023-07-19T14:25:01.629Z,35.30
2023-07-19T14:27:29.143Z,34.67
2023-07-19T14:29:58.035Z,36.26
2023-07-19T14:32:25.928Z,35.99
2023-07-19T14:34:54.939Z,36.33
2023-07-19T14:37:22.598Z,37.21
2023-07-19T14:39:49.956Z,39.61
2023-07-19T14:42:17.562Z,40.56
2023-07-19T14:44:44.927Z,42.92
2023-07-19T14:47:12.449Z,47.63
2023-07-19T14:49:41.773Z,49.20
2023-07-19T14:52:10.932Z,50.63
2023-07-19T14:54:39.635Z,52.16
2023-07-19T14:57:08.297Z,51.76
2023-07-19T14:59:35.947Z,51.59
2023-07-19T15:02:03.965Z,51.95
2023-07-19T15:04:31.928Z,51.88
2023-07-19T15:06:59.418Z,50.51
2023-07-19T15:09:29.567Z,50.04
2023-07-19T15:11:57.235Z,48.36
2023-07-19T15:14:24.653Z,49.33
2023-07-19T15:16:53.531Z,47.64
2023-07-19T15:19:23.844Z,48.11
2023-07-19T15:21:54.460Z,46.99
2023-07-19T15:24:22.097Z,47.00
2023-07-19T15:26:50.991Z,46.03
2023-07-19T15:29:18.474Z,46.00
2023-07-19T15:31:48.367Z,43.83
2023-07-19T15:34:16.140Z,44.23
2023-07-19T15:36:44.781Z,44.52
2023-07-19T15:39:13.270Z,44.56
2023-07-19T15:41:40.778Z,44.30
2023-07-19T15:44:25.551Z,44.27
2023-07-19T15:47:01.044Z,45.31
2023-07-19T15:49:28.574Z,44.42
2023-07-19T15:51:59.412Z,44.09
2023-07-19T15:54:27.251Z,44.79
2023-07-19T15:56:55.221Z,44.08
2023-07-19T15:59:24.174Z,43.69
2023-07-19T16:01:51.932Z,43.66
2023-07-19T16:04:19.821Z,44.09
2023-07-19T16:06:47.319Z,43.80
2023-07-19T16:09:14.846Z,44.29
2023-07-19T16:11:42.477Z,43.56
2023-07-19T16:14:10.034Z,44.40
2023-07-19T16:16:38.894Z,43.23
2023-07-19T16:19:06.502Z,43.52
2023-07-19T16:21:34.881Z,43.33
2023-07-19T16:24:02.433Z,42.81
2023-07-19T16:26:30.009Z,42.77
2023-07-19T16:28:57.806Z,42.82
2023-07-19T16:31:25.843Z,43.63
2023-07-19T16:33:54.992Z,44.01
2023-07-19T16:36:22.604Z,44.10
2023-07-19T16:38:50.121Z,44.00
2023-07-19T16:41:17.929Z,44.27
2023-07-19T16:43:46.241Z,44.06
2023-07-19T16:46:13.841Z,44.55
2023-07-19T16:48:42.776Z,44.92
2023-07-19T16:51:11.630Z,44.63
2023-07-19T16:53:39.840Z,44.59
2023-07-19T16:56:07.589Z,45.04
2023-07-19T16:58:35.127Z,46.17
2023-07-19T17:01:02.664Z,46.57
2023-07-19T17:03:30.235Z,46.78
2023-07-19T17:05:57.769Z,47.00
2023-07-19T17:08:26.600Z,48.06
2023-07-19T17:10:54.746Z,48.63
2023-07-19T17:13:24.780Z,49.44
2023-07-19T17:15:53.582Z,51.00
2023-07-19T17:18:21.216Z,53.25
2023-07-19T17:20:48.899Z,57.94
2023-07-19T17:23:16.370Z,61.45
2023-07-19T17:25:45.286Z,63.98
2023-07-19T17:28:12.757Z,64.49
2023-07-19T17:30:42.173Z,73.41
2023-07-19T17:33:09.927Z,72.60
2023-07-19T17:35:37.473Z,76.82
2023-07-19T17:38:04.999Z,78.21
2023-07-19T17:40:32.868Z,76.46
2023-07-19T17:43:01.751Z,77.73
2023-07-19T17:45:29.390Z,80.65
2023-07-19T17:47:57.019Z,78.74
2023-07-19T17:50:24.691Z,75.28
2023-07-19T17:52:52.200Z,72.23
2023-07-19T17:55:20.199Z,72.73
2023-07-19T17:57:48.769Z,66.26
2023-07-19T18:00:18.349Z,63.57
2023-07-19T18:02:46.069Z,68.97
2023-07-19T18:05:13.565Z,73.96
2023-07-19T18:07:41.160Z,66.01
2023-07-19T18:10:09.514Z,61.69
2023-07-19T18:12:38.838Z,62.23
2023-07-19T18:15:08.090Z,60.30
2023-07-19T18:17:37.851Z,63.23
2023-07-19T18:20:06.501Z,65.76
2023-07-19T18:22:34.431Z,60.01
2023-07-19T18:25:02.150Z,59.75
2023-07-19T18:27:29.670Z,61.89
2023-07-19T18:29:57.157Z,65.31
2023-07-19T18:32:24.859Z,60.23
2023-07-19T18:34:53.749Z,60.51
2023-07-19T18:37:21.257Z,67.42
2023-07-19T18:39:49.105Z,62.59
2023-07-19T18:42:16.561Z,67.42
2023-07-19T18:44:44.121Z,64.83
2023-07-19T18:47:12.725Z,64.84
2023-07-19T18:49:40.284Z,67.37
2023-07-19T18:52:09.370Z,62.15
2023-07-19T18:54:37.416Z,61.10
2023-07-19T18:57:05.595Z,58.63
2023-07-19T18:59:33.173Z,61.24
2023-07-19T19:02:02.882Z,64.66
2023-07-19T19:04:30.415Z,61.82
2023-07-19T19:06:57.943Z,70.51
2023-07-19T19:09:26.802Z,62.17
2023-07-19T19:11:54.552Z,67.50
2023-07-19T19:14:22.218Z,68.84
2023-07-19T19:16:49.779Z,68.53
2023-07-19T19:19:17.352Z,70.52
2023-07-19T19:21:45.013Z,76.02
2023-07-19T19:24:12.636Z,77.25
2023-07-19T19:26:44.125Z,79.97
2023-07-19T19:29:11.648Z,75.42
2023-07-19T19:31:39.268Z,75.93
2023-07-19T19:34:07.646Z,80.47
2023-07-19T19:36:35.387Z,77.66
2023-07-19T19:39:12.056Z,69.28
2023-07-19T19:41:44.340Z,75.16
2023-07-19T19:44:11.846Z,75.50
2023-07-19T19:46:39.761Z,72.89
2023-07-19T19:49:07.440Z,76.96
2023-07-19T19:51:37.035Z,82.87
2023-07-19T19:54:06.492Z,78.80
2023-07-19T19:56:34.096Z,75.27
2023-07-19T19:59:02.953Z,77.63
2023-07-19T20:01:33.790Z,68.92
2023-07-19T20:04:04.976Z,67.20
2023-07-19T20:06:32.999Z,66.49
2023-07-19T20:09:02.686Z,69.29
2023-07-19T20:11:31.055Z,76.64
2023-07-19T20:13:59.064Z,80.78
2023-07-19T20:16:29.208Z,70.41
2023-07-19T20:18:56.802Z,67.20
2023-07-19T20:21:24.974Z,64.43
2023-07-19T20:23:52.896Z,80.11
2023-07-19T20:26:25.508Z,84.49
2023-07-19T20:29:26.252Z,75.25
2023-07-19T20:36:46.588Z,70.91
2023-07-19T20:41:44.694Z,63.85
2023-07-19T20:44:12.520Z,64.92
2023-07-19T20:46:41.635Z,65.50
2023-07-19T20:49:14.198Z,63.12
2023-07-19T20:51:42.856Z,64.45
2023-07-19T20:54:11.217Z,69.75
2023-07-19T20:56:38.812Z,75.18
2023-07-19T20:59:06.652Z,71.97
2023-07-19T21:01:34.160Z,67.40
2023-07-19T21:04:03.153Z,69.65
2023-07-19T21:06:30.866Z,82.17
2023-07-19T21:08:59.919Z,70.89
2023-07-19T21:11:27.889Z,71.84
2023-07-19T21:13:55.417Z,88.58
2023-07-19T21:16:23.027Z,90.15
2023-07-19T21:18:50.546Z,71.35
2023-07-19T21:21:19.844Z,75.49
2023-07-19T21:23:47.632Z,69.48
2023-07-19T21:26:15.275Z,70.13
2023-07-19T21:28:43.058Z,67.83
2023-07-19T21:31:10.661Z,66.72
2023-07-19T21:33:38.520Z,77.21
2023-07-19T21:36:06.780Z,74.42
2023-07-19T21:38:35.631Z,81.26
2023-07-19T21:41:03.172Z,85.09
2023-07-19T21:43:30.722Z,87.83
2023-07-19T21:45:58.235Z,89.08
2023-07-19T21:48:25.796Z,89.44
2023-07-19T21:50:53.458Z,80.17
2023-07-19T21:53:23.589Z,70.09
2023-07-19T21:55:52.766Z,71.31
2023-07-19T21:58:21.519Z,69.27
2023-07-19T22:00:52.636Z,66.71
2023-07-19T22:03:20.417Z,68.96
2023-07-19T22:05:47.988Z,67.67
2023-07-19T22:08:15.841Z,72.11
2023-07-19T22:10:43.427Z,76.62
2023-07-19T22:13:12.346Z,69.28
2023-07-19T22:15:39.894Z,66.87
2023-07-19T22:18:17.970Z,69.91
2023-07-19T22:20:48.136Z,70.33
2023-07-19T22:23:16.153Z,71.20
2023-07-19T22:25:44.238Z,70.01
2023-07-19T22:28:13.162Z,75.90
2023-07-19T22:30:41.363Z,72.49
2023-07-19T22:33:09.265Z,81.56
2023-07-19T22:35:36.934Z,82.40
2023-07-19T22:38:04.469Z,78.85
2023-07-19T22:40:32.618Z,91.55
2023-07-19T22:43:00.365Z,82.82
2023-07-19T22:45:29.233Z,71.92
2023-07-19T22:47:57.916Z,77.02
2023-07-19T22:50:25.637Z,76.60
2023-07-19T22:52:55.274Z,74.29
2023-07-19T22:55:24.799Z,72.74
2023-07-19T22:57:53.885Z,68.80
2023-07-19T23:00:22.046Z,69.51
2023-07-19T23:02:51.096Z,69.76
2023-07-19T23:05:19.397Z,74.35
2023-07-19T23:07:47.515Z,77.16
2023-07-19T23:10:15.179Z,70.43
2023-07-19T23:12:42.822Z,68.02
2023-07-19T23:15:11.031Z,69.91
2023-07-19T23:17:38.624Z,72.13
2023-07-19T23:20:11.776Z,68.88
2023-07-19T23:22:39.363Z,68.23
2023-07-19T23:25:10.952Z,70.36
2023-07-19T23:27:38.648Z,81.65
2023-07-19T23:30:07.606Z,88.38
2023-07-19T23:32:35.184Z,79.32
2023-07-19T23:35:04.364Z,86.95
2023-07-19T23:37:33.518Z,88.67
2023-07-19T23:40:01.056Z,82.43
2023-07-19T23:42:28.717Z,88.92
2023-07-19T23:44:58.845Z,82.08
2023-07-19T23:47:27.304Z,79.33
2023-07-19T23:49:55.059Z,80.06
2023-07-19T23:52:22.590Z,74.72
2023-07-19T23:54:51.585Z,88.35
2023-07-19T23:57:19.082Z,80.53
2023-07-19T23:59:46.630Z,88.90
